createdAt,value
2018-08-23T00:01:05.610Z,78.29
2018-08-23T00:02:41.815Z,77.80
2018-08-23T00:04:18.383Z,77.83
2018-08-23T00:05:59.054Z,78.13
2018-08-23T00:07:37.041Z,78.92
2018-08-23T00:09:13.631Z,78.70
2018-08-23T00:10:53.707Z,78.45
2018-08-23T00:12:34.100Z,78.79
2018-08-23T00:14:12.266Z,79.23
2018-08-23T00:15:50.030Z,79.49
2018-08-23T00:17:26.774Z,79.69
2018-08-23T00:19:03.706Z,79.94
2018-08-23T00:20:40.398Z,79.36
2018-08-23T00:22:32.428Z,79.48
2018-08-23T00:24:15.959Z,79.55
2018-08-23T00:25:52.107Z,80.03
2018-08-23T00:27:33.389Z,80.16
2018-08-23T00:29:18.313Z,80.36
2018-08-23T00:30:54.433Z,80.67
2018-08-23T00:32:33.814Z,80.95
2018-08-23T00:34:11.083Z,80.40
2018-08-23T00:35:47.328Z,80.82
2018-08-23T00:37:24.027Z,80.78
2018-08-23T00:39:00.465Z,80.92
2018-08-23T00:40:47.125Z,80.91
2018-08-23T00:42:25.104Z,81.28
2018-08-23T00:44:01.651Z,82.08
2018-08-23T00:45:38.473Z,81.66
2018-08-23T00:47:17.067Z,81.88
2018-08-23T00:48:52.432Z,82.03
2018-08-23T00:51:07.861Z,82.46
2018-08-23T00:52:44.977Z,82.98
2018-08-23T00:54:22.133Z,82.26
2018-08-23T00:56:16.413Z,82.66
2018-08-23T00:57:52.657Z,82.92
2018-08-23T00:59:28.526Z,82.64
2018-08-23T01:01:04.039Z,83.67
2018-08-23T01:02:39.948Z,83.50
2018-08-23T01:04:19.520Z,84.08
2018-08-23T01:05:54.860Z,83.87
2018-08-23T01:07:33.818Z,83.97
2018-08-23T01:09:10.683Z,84.48
2018-08-23T01:10:48.112Z,83.97
2018-08-23T01:12:24.250Z,84.44
2018-08-23T01:14:00.173Z,84.45
2018-08-23T01:15:35.533Z,84.11
2018-08-23T01:17:16.492Z,84.88
2018-08-23T01:18:51.731Z,84.44
2018-08-23T01:20:28.717Z,84.60
2018-08-23T01:24:02.627Z,85.71
2018-08-23T01:25:40.468Z,84.93
2018-08-23T01:27:25.281Z,85.09
2018-08-23T01:29:03.522Z,85.12
2018-08-23T01:30:39.483Z,85.67
2018-08-23T01:32:25.566Z,85.54
2018-08-23T01:34:01.106Z,85.46
2018-08-23T01:35:36.412Z,85.94
2018-08-23T01:37:12.131Z,86.29
2018-08-23T01:38:47.200Z,86.56
2018-08-23T01:40:22.807Z,86.16
2018-08-23T01:41:58.922Z,86.25
2018-08-23T01:43:34.583Z,86.47
2018-08-23T01:45:13.694Z,86.76
2018-08-23T01:46:48.695Z,86.24
2018-08-23T01:48:24.640Z,86.96
2018-08-23T01:50:00.026Z,86.43
2018-08-23T01:51:36.391Z,87.04
2018-08-23T01:53:12.413Z,87.23
2018-08-23T01:54:49.394Z,86.46
2018-08-23T01:56:25.257Z,87.07
2018-08-23T02:04:08.386Z,88.10
2018-08-23T02:05:43.963Z,88.36
2018-08-23T02:07:20.103Z,87.83
2018-08-23T02:08:55.520Z,88.21
2018-08-23T02:10:31.878Z,88.24
2018-08-23T02:12:07.266Z,88.34
2018-08-23T02:13:42.412Z,88.47
2018-08-23T02:15:17.821Z,87.81
2018-08-23T02:16:55.289Z,88.79
2018-08-23T02:18:30.859Z,88.09
2018-08-23T02:20:06.091Z,88.47
2018-08-23T02:21:41.958Z,88.20
2018-08-23T02:23:17.245Z,88.83
2018-08-23T02:24:52.802Z,88.28
2018-08-23T02:26:28.189Z,88.40
2018-08-23T02:29:42.137Z,89.17
2018-08-23T02:31:19.701Z,88.87
2018-08-23T02:32:55.979Z,88.86
2018-08-23T02:34:34.903Z,89.40
2018-08-23T02:36:23.707Z,89.46
2018-08-23T02:37:59.098Z,89.40
2018-08-23T02:39:35.422Z,89.39
2018-08-23T02:41:10.372Z,89.07
2018-08-23T02:42:45.439Z,89.21
2018-08-23T02:44:20.467Z,89.28
2018-08-23T02:45:55.933Z,89.70
2018-08-23T02:47:32.852Z,89.82
2018-08-23T02:49:08.315Z,89.32
2018-08-23T02:50:43.717Z,89.39
2018-08-23T02:52:19.192Z,89.31
2018-08-23T02:53:54.506Z,89.83
2018-08-23T02:55:30.353Z,89.81
2018-08-23T02:57:09.733Z,89.89
2018-08-23T02:59:08.333Z,89.04
2018-08-23T03:00:46.648Z,89.34
2018-08-23T03:02:23.094Z,89.37
2018-08-23T03:04:08.337Z,89.99
2018-08-23T03:05:43.635Z,89.60
2018-08-23T03:07:21.594Z,90.24
2018-08-23T03:08:56.699Z,89.91
2018-08-23T03:10:32.089Z,89.95
2018-08-23T03:12:11.017Z,90.30
2018-08-23T03:13:46.323Z,90.28
2018-08-23T03:15:25.431Z,90.09
2018-08-23T03:17:19.694Z,89.72
2018-08-23T03:18:55.045Z,89.89
2018-08-23T03:20:30.768Z,90.00
2018-08-23T03:22:05.980Z,89.99
2018-08-23T03:23:46.626Z,90.55
2018-08-23T03:25:22.665Z,89.71
2018-08-23T03:26:57.868Z,89.78
2018-08-23T03:28:35.774Z,89.85
2018-08-23T03:30:13.943Z,90.21
2018-08-23T03:31:50.131Z,90.34
2018-08-23T03:33:25.147Z,90.86
2018-08-23T03:35:00.972Z,90.47
2018-08-23T03:36:35.949Z,90.59
2018-08-23T03:38:11.290Z,90.67
2018-08-23T03:39:46.835Z,90.12
2018-08-23T03:41:22.910Z,90.51
2018-08-23T03:42:58.168Z,90.49
2018-08-23T03:44:39.907Z,90.93
2018-08-23T03:46:15.333Z,90.78
2018-08-23T03:47:52.848Z,90.88
2018-08-23T03:49:36.881Z,90.62
2018-08-23T03:51:12.168Z,91.62
2018-08-23T03:52:49.548Z,91.43
2018-08-23T03:54:24.643Z,91.18
2018-08-23T03:56:11.471Z,91.30
2018-08-23T03:57:54.321Z,92.26
2018-08-23T03:59:30.423Z,91.64
2018-08-23T04:01:09.345Z,91.98
2018-08-23T04:02:45.333Z,91.43
2018-08-23T04:04:21.851Z,91.74
2018-08-23T04:06:01.420Z,91.28
2018-08-23T04:07:37.197Z,90.97
2018-08-23T04:09:12.962Z,91.69
2018-08-23T04:10:48.162Z,91.66
2018-08-23T04:12:23.083Z,91.46
2018-08-23T04:13:58.378Z,91.76
2018-08-23T04:15:33.581Z,92.19
2018-08-23T04:17:10.436Z,92.64
2018-08-23T04:18:45.464Z,91.09
2018-08-23T04:20:20.443Z,92.04
2018-08-23T04:21:55.564Z,92.14
2018-08-23T04:23:30.521Z,91.93
2018-08-23T04:25:06.649Z,92.59
2018-08-23T04:26:41.794Z,91.74
2018-08-23T04:28:17.489Z,92.42
2018-08-23T04:29:52.794Z,91.96
2018-08-23T04:31:27.908Z,92.75
2018-08-23T04:33:03.206Z,92.22
2018-08-23T04:34:38.495Z,92.36
2018-08-23T04:36:34.836Z,92.45
2018-08-23T04:38:09.749Z,92.27
2018-08-23T04:39:50.437Z,92.63
2018-08-23T04:41:25.709Z,92.15
2018-08-23T04:43:01.029Z,92.29
2018-08-23T04:44:43.254Z,92.48
2018-08-23T04:46:23.477Z,92.70
2018-08-23T04:48:05.641Z,93.12
2018-08-23T04:49:41.593Z,93.10
2018-08-23T04:51:16.615Z,92.23
2018-08-23T04:52:51.706Z,92.20
2018-08-23T04:54:27.194Z,93.36
2018-08-23T04:56:02.451Z,93.24
2018-08-23T04:57:37.907Z,93.29
2018-08-23T04:59:13.059Z,92.05
2018-08-23T05:00:52.585Z,93.29
2018-08-23T05:02:28.139Z,92.11
2018-08-23T05:04:03.192Z,93.12
2018-08-23T05:05:38.319Z,92.87
2018-08-23T05:07:14.118Z,93.36
2018-08-23T05:08:49.547Z,92.90
2018-08-23T05:10:25.979Z,92.29
2018-08-23T05:12:02.745Z,93.28
2018-08-23T05:13:38.235Z,92.99
2018-08-23T05:15:16.712Z,93.19
2018-08-23T05:16:51.874Z,93.79
2018-08-23T05:18:28.615Z,92.72
2018-08-23T05:20:04.150Z,93.87
2018-08-23T05:21:39.964Z,93.52
2018-08-23T05:23:14.991Z,93.24
2018-08-23T05:24:50.155Z,92.72
2018-08-23T05:26:25.144Z,92.95
2018-08-23T05:28:14.394Z,93.51
2018-08-23T05:29:50.397Z,93.35
2018-08-23T05:31:25.884Z,93.10
2018-08-23T05:33:05.984Z,92.84
2018-08-23T05:34:41.568Z,92.98
2018-08-23T05:36:17.777Z,93.43
2018-08-23T05:37:52.761Z,92.77
2018-08-23T05:39:38.783Z,93.50
2018-08-23T05:41:14.887Z,93.66
2018-08-23T05:42:55.339Z,93.64
2018-08-23T05:44:30.514Z,93.14
2018-08-23T05:46:06.930Z,93.22
2018-08-23T05:47:42.743Z,93.34
2018-08-23T05:49:18.831Z,93.45
2018-08-23T05:50:55.866Z,93.11
2018-08-23T05:52:31.572Z,93.31
2018-08-23T05:54:09.001Z,93.10
2018-08-23T05:55:46.272Z,92.93
2018-08-23T05:57:23.386Z,93.04
2018-08-23T05:59:05.975Z,92.80
2018-08-23T06:00:43.031Z,92.70
2018-08-23T06:02:19.527Z,92.34
2018-08-23T06:03:57.452Z,92.65
2018-08-23T06:05:33.913Z,92.19
2018-08-23T06:07:09.473Z,91.76
2018-08-23T06:08:49.466Z,92.11
2018-08-23T06:10:27.602Z,92.42
2018-08-23T06:12:02.753Z,91.88
2018-08-23T06:13:38.393Z,91.03
2018-08-23T06:15:15.963Z,91.72
2018-08-23T06:16:57.621Z,91.22
2018-08-23T06:18:32.704Z,90.31
2018-08-23T06:20:08.358Z,90.53
2018-08-23T06:21:43.712Z,90.26
2018-08-23T06:23:19.999Z,89.39
2018-08-23T06:24:55.692Z,89.64
2018-08-23T06:26:37.678Z,88.04
2018-08-23T06:28:25.403Z,87.44
2018-08-23T06:30:00.722Z,87.61
2018-08-23T06:31:36.886Z,85.81
2018-08-23T06:33:12.161Z,86.17
2018-08-23T06:34:49.320Z,84.69
2018-08-23T06:36:25.408Z,83.04
2018-08-23T06:38:02.355Z,82.10
2018-08-23T06:39:38.807Z,81.05
2018-08-23T06:41:14.965Z,80.14
2018-08-23T06:43:00.429Z,79.11
2018-08-23T06:44:44.281Z,77.86
2018-08-23T06:46:20.205Z,77.22
2018-08-23T06:47:59.640Z,76.20
2018-08-23T06:49:34.810Z,75.35
2018-08-23T06:51:11.912Z,74.52
2018-08-23T06:52:50.722Z,74.15
2018-08-23T06:54:26.646Z,72.74
2018-08-23T06:56:02.613Z,72.73
2018-08-23T06:57:46.259Z,71.28
2018-08-23T06:59:24.791Z,71.02
2018-08-23T07:01:05.103Z,71.03
2018-08-23T07:02:45.723Z,70.78
2018-08-23T07:04:34.365Z,70.09
2018-08-23T07:06:10.132Z,69.72
2018-08-23T07:07:45.933Z,69.81
2018-08-23T07:09:25.099Z,69.05
2018-08-23T07:11:22.488Z,68.34
2018-08-23T07:13:00.928Z,68.05
2018-08-23T07:14:40.674Z,67.83
2018-08-23T07:16:16.404Z,66.84
2018-08-23T07:17:52.225Z,67.01
2018-08-23T07:19:31.406Z,67.10
2018-08-23T07:21:08.624Z,67.40
2018-08-23T07:22:46.691Z,67.45
2018-08-23T07:26:21.124Z,66.75
2018-08-23T07:27:56.514Z,67.74
2018-08-23T07:29:32.568Z,67.06
2018-08-23T07:31:09.403Z,67.40
2018-08-23T07:32:48.421Z,67.48
2018-08-23T07:34:25.863Z,68.32
2018-08-23T07:36:16.299Z,67.84
2018-08-23T07:37:56.948Z,66.88
2018-08-23T07:39:36.180Z,67.76
2018-08-23T07:41:12.309Z,66.69
2018-08-23T07:42:49.815Z,67.56
2018-08-23T07:44:26.018Z,67.15
2018-08-23T07:46:02.440Z,66.95
2018-08-23T07:47:45.381Z,67.13
2018-08-23T07:49:20.324Z,67.55
2018-08-23T07:50:56.690Z,67.13
2018-08-23T07:52:35.824Z,66.24
2018-08-23T07:54:16.708Z,65.69
2018-08-23T07:55:52.013Z,65.52
2018-08-23T07:57:39.758Z,64.38
2018-08-23T07:59:16.282Z,63.53
2018-08-23T08:00:53.562Z,63.72
2018-08-23T08:02:32.125Z,62.94
2018-08-23T08:04:15.818Z,62.94
2018-08-23T08:05:54.150Z,62.97
2018-08-23T08:07:35.660Z,62.58
2018-08-23T08:09:13.796Z,62.74
2018-08-23T08:10:49.128Z,63.06
2018-08-23T08:12:38.338Z,62.53
2018-08-23T08:14:20.223Z,62.98
2018-08-23T08:15:58.564Z,62.54
2018-08-23T08:17:38.310Z,61.50
2018-08-23T08:19:13.669Z,61.09
2018-08-23T08:20:55.630Z,61.29
2018-08-23T08:22:31.704Z,60.69
2018-08-23T08:24:08.326Z,58.90
2018-08-23T08:25:45.423Z,59.67
2018-08-23T08:27:23.323Z,59.60
2018-08-23T08:28:59.262Z,59.53
2018-08-23T08:30:47.481Z,59.54
2018-08-23T08:32:23.107Z,58.92
2018-08-23T08:34:01.427Z,59.08
2018-08-23T08:35:39.603Z,57.73
2018-08-23T08:37:14.561Z,58.83
2018-08-23T08:38:54.459Z,58.31
2018-08-23T08:40:31.951Z,57.04
2018-08-23T08:42:10.009Z,57.41
2018-08-23T08:43:47.310Z,56.14
2018-08-23T08:45:27.962Z,56.31
2018-08-23T08:47:05.078Z,57.34
2018-08-23T08:48:41.614Z,57.39
2018-08-23T08:50:17.671Z,57.35
2018-08-23T08:51:54.237Z,56.42
2018-08-23T08:53:36.451Z,56.55
2018-08-23T08:55:16.737Z,57.24
2018-08-23T08:56:53.986Z,56.46
2018-08-23T08:58:29.267Z,56.99
2018-08-23T09:00:06.870Z,58.43
2018-08-23T09:01:52.635Z,59.01
2018-08-23T09:03:33.625Z,57.99
2018-08-23T09:05:17.929Z,57.32
2018-08-23T09:06:54.617Z,56.89
2018-08-23T09:08:30.345Z,56.63
2018-08-23T09:10:08.996Z,55.25
2018-08-23T09:11:51.449Z,55.91
2018-08-23T09:13:38.321Z,54.69
2018-08-23T09:15:17.076Z,55.02
2018-08-23T09:16:56.430Z,53.96
2018-08-23T09:18:35.424Z,53.98
2018-08-23T09:20:17.408Z,55.15
2018-08-23T09:22:06.163Z,55.65
2018-08-23T09:23:43.994Z,55.18
2018-08-23T09:25:31.137Z,55.46
2018-08-23T09:35:18.752Z,52.95
2018-08-23T09:37:06.505Z,53.16
2018-08-23T09:38:49.764Z,53.34
2018-08-23T09:40:28.245Z,51.36
2018-08-23T09:42:12.294Z,52.13
2018-08-23T09:43:55.109Z,50.64
2018-08-23T09:45:33.783Z,52.51
2018-08-23T09:47:12.214Z,51.98
2018-08-23T09:48:53.173Z,52.59
2018-08-23T09:50:33.637Z,53.22
2018-08-23T09:52:17.946Z,52.35
2018-08-23T09:53:55.852Z,53.06
2018-08-23T09:55:35.324Z,50.97
2018-08-23T09:57:21.548Z,52.10
2018-08-23T09:59:07.500Z,50.91
2018-08-23T10:00:51.975Z,51.65
2018-08-23T10:02:36.284Z,51.79
2018-08-23T10:04:19.649Z,50.35
2018-08-23T10:06:03.405Z,48.61
2018-08-23T10:07:46.165Z,48.21
2018-08-23T10:09:24.490Z,48.81
2018-08-23T10:13:12.249Z,49.13
2018-08-23T10:14:52.661Z,48.41
2018-08-23T10:16:34.168Z,48.27
2018-08-23T10:18:15.515Z,46.94
2018-08-23T10:19:57.940Z,49.20
2018-08-23T10:21:40.841Z,49.26
2018-08-23T10:29:29.326Z,45.48
2018-08-23T10:31:05.600Z,44.83
2018-08-23T10:32:43.729Z,43.77
2018-08-23T10:34:19.862Z,42.15
2018-08-23T10:35:58.069Z,42.75
2018-08-23T10:37:35.823Z,44.73
2018-08-23T10:39:15.894Z,44.61
2018-08-23T10:40:55.351Z,43.49
2018-08-23T10:42:32.594Z,42.50
2018-08-23T10:44:10.278Z,42.22
2018-08-23T10:45:46.465Z,43.51
2018-08-23T10:48:26.548Z,42.94
2018-08-23T10:50:01.879Z,44.21
2018-08-23T10:51:40.365Z,45.08
2018-08-23T10:53:17.253Z,44.70
2018-08-23T10:54:57.180Z,44.74
2018-08-23T10:56:36.052Z,45.56
2018-08-23T10:58:12.967Z,45.77
2018-08-23T10:59:49.695Z,44.95
2018-08-23T11:01:25.113Z,44.05
2018-08-23T11:03:06.733Z,44.21
2018-08-23T11:04:49.555Z,43.29
2018-08-23T11:06:27.906Z,42.29
2018-08-23T11:08:10.474Z,41.49
2018-08-23T11:09:52.559Z,41.98
2018-08-23T11:11:33.529Z,42.94
2018-08-23T11:13:15.813Z,44.36
2018-08-23T11:14:52.524Z,43.00
2018-08-23T11:18:38.777Z,43.50
2018-08-23T11:20:23.008Z,42.20
2018-08-23T11:22:01.222Z,42.20
2018-08-23T11:23:37.201Z,41.81
2018-08-23T11:25:16.518Z,40.09
2018-08-23T11:26:54.797Z,41.32
2018-08-23T11:28:32.754Z,40.91
2018-08-23T11:30:08.771Z,41.07
2018-08-23T11:31:44.681Z,41.19
2018-08-23T11:33:22.330Z,41.12
2018-08-23T11:34:58.247Z,41.26
2018-08-23T11:36:35.582Z,39.75
2018-08-23T11:38:12.891Z,40.60
2018-08-23T11:39:52.914Z,40.44
2018-08-23T11:41:31.807Z,42.09
2018-08-23T11:43:12.656Z,43.17
2018-08-23T11:44:49.203Z,45.03
2018-08-23T11:46:26.213Z,45.10
2018-08-23T11:48:02.045Z,45.11
2018-08-23T11:49:41.936Z,43.92
2018-08-23T11:51:19.603Z,42.58
2018-08-23T11:52:55.364Z,42.55
2018-08-23T11:54:31.236Z,42.20
2018-08-23T11:56:11.248Z,40.70
2018-08-23T11:57:48.339Z,42.31
2018-08-23T11:59:24.618Z,40.93
2018-08-23T12:01:07.708Z,43.08
2018-08-23T12:02:47.253Z,42.65
2018-08-23T12:04:22.350Z,40.53
2018-08-23T12:05:57.731Z,41.39
2018-08-23T12:07:35.606Z,42.24
2018-08-23T12:09:17.313Z,42.05
2018-08-23T12:11:00.818Z,41.19
2018-08-23T12:12:38.064Z,41.80
2018-08-23T12:14:16.185Z,43.83
2018-08-23T12:15:51.801Z,44.46
2018-08-23T12:17:27.842Z,45.11
2018-08-23T12:19:09.496Z,44.06
2018-08-23T12:20:46.588Z,42.49
2018-08-23T12:22:29.687Z,43.06
2018-08-23T12:24:06.511Z,42.81
2018-08-23T12:25:44.099Z,42.69
2018-08-23T12:27:20.869Z,42.18
2018-08-23T12:29:01.259Z,43.15
2018-08-23T12:30:39.293Z,42.37
2018-08-23T12:32:15.898Z,42.19
2018-08-23T12:33:53.490Z,42.25
2018-08-23T12:35:30.379Z,43.62
2018-08-23T12:37:10.702Z,42.75
2018-08-23T12:38:54.822Z,42.75
2018-08-23T12:40:37.865Z,41.14
2018-08-23T12:43:16.251Z,40.63
2018-08-23T12:44:53.520Z,40.32
2018-08-23T12:46:29.517Z,42.05
2018-08-23T12:48:07.511Z,40.67
2018-08-23T12:49:45.098Z,42.68
2018-08-23T12:51:20.818Z,43.17
2018-08-23T12:53:01.171Z,41.32
2018-08-23T12:54:37.743Z,41.63
2018-08-23T12:56:17.445Z,40.06
2018-08-23T12:57:53.450Z,40.16
2018-08-23T12:59:30.815Z,39.28
2018-08-23T13:01:07.555Z,38.83
2018-08-23T13:02:43.885Z,37.79
2018-08-23T13:04:22.979Z,38.04
2018-08-23T13:06:00.945Z,37.48
2018-08-23T13:07:37.543Z,37.38
2018-08-23T13:09:15.010Z,37.14
2018-08-23T13:10:53.235Z,38.32
2018-08-23T13:12:32.059Z,37.71
2018-08-23T13:14:10.225Z,36.55
2018-08-23T13:15:47.860Z,37.06
2018-08-23T13:17:24.478Z,38.70
2018-08-23T13:19:00.452Z,38.71
2018-08-23T13:20:35.959Z,39.05
2018-08-23T13:22:12.937Z,37.68
2018-08-23T13:23:54.926Z,39.19
2018-08-23T13:25:30.878Z,37.47
2018-08-23T13:27:07.271Z,37.02
2018-08-23T13:28:50.392Z,38.27
2018-08-23T13:30:30.863Z,37.78
2018-08-23T13:32:08.168Z,38.34
2018-08-23T13:33:46.283Z,38.55
2018-08-23T13:35:26.356Z,38.18
2018-08-23T13:37:02.987Z,38.96
2018-08-23T13:38:43.836Z,38.84
2018-08-23T13:40:25.583Z,40.86
2018-08-23T13:42:03.250Z,39.92
2018-08-23T13:43:41.159Z,39.21
2018-08-23T13:45:20.596Z,40.36
2018-08-23T13:46:56.334Z,39.76
2018-08-23T13:48:37.097Z,39.95
2018-08-23T13:50:16.806Z,39.86
2018-08-23T13:51:53.284Z,38.66
2018-08-23T13:53:31.280Z,39.75
2018-08-23T13:55:09.532Z,38.72
2018-08-23T13:56:50.526Z,40.52
2018-08-23T13:58:27.301Z,39.32
2018-08-23T14:00:05.062Z,40.19
2018-08-23T14:01:42.630Z,39.52
2018-08-23T14:03:22.281Z,39.89
2018-08-23T14:05:01.145Z,41.06
2018-08-23T14:06:37.697Z,41.05
2018-08-23T14:08:14.765Z,40.21
2018-08-23T14:09:50.328Z,39.57
2018-08-23T14:11:27.726Z,39.73
2018-08-23T14:13:04.620Z,40.82
2018-08-23T14:14:42.947Z,42.08
2018-08-23T14:16:25.805Z,42.71
2018-08-23T14:18:03.331Z,43.76
2018-08-23T14:19:41.619Z,42.52
2018-08-23T14:21:21.394Z,42.34
2018-08-23T14:23:06.118Z,41.83
2018-08-23T14:24:47.446Z,43.48
2018-08-23T14:26:29.304Z,42.86
2018-08-23T14:28:09.635Z,42.75
2018-08-23T14:29:49.365Z,43.99
2018-08-23T14:31:29.329Z,43.74
2018-08-23T14:33:11.405Z,44.82
2018-08-23T14:34:51.926Z,45.05
2018-08-23T14:36:35.261Z,46.42
2018-08-23T14:38:12.477Z,46.31
2018-08-23T14:39:49.789Z,47.97
2018-08-23T14:41:26.887Z,47.73
2018-08-23T14:43:03.218Z,47.91
2018-08-23T14:44:40.454Z,47.66
2018-08-23T14:46:25.584Z,48.86
2018-08-23T14:48:21.704Z,48.72
2018-08-23T14:49:59.456Z,49.63
2018-08-23T14:51:37.506Z,50.51
2018-08-23T14:53:19.205Z,48.63
2018-08-23T14:55:05.202Z,48.85
2018-08-23T14:57:47.267Z,47.77
2018-08-23T14:59:24.885Z,48.40
2018-08-23T15:01:02.796Z,48.66
2018-08-23T15:02:40.659Z,48.69
2018-08-23T15:04:16.364Z,47.89
2018-08-23T15:07:47.387Z,48.49
2018-08-23T15:09:28.859Z,48.70
2018-08-23T15:11:06.191Z,47.84
2018-08-23T15:12:50.412Z,47.02
2018-08-23T15:14:29.587Z,48.06
2018-08-23T15:16:08.058Z,47.87
2018-08-23T15:17:47.539Z,48.05
2018-08-23T15:19:26.407Z,48.57
2018-08-23T15:21:09.564Z,48.75
2018-08-23T15:22:50.131Z,48.78
2018-08-23T15:24:27.311Z,48.54
2018-08-23T15:26:12.716Z,49.12
2018-08-23T15:27:51.278Z,49.37
2018-08-23T15:29:28.385Z,48.59
2018-08-23T15:31:06.711Z,47.50
2018-08-23T15:32:43.997Z,47.42
2018-08-23T15:34:20.201Z,49.15
2018-08-23T15:35:57.745Z,49.53
2018-08-23T15:37:35.942Z,50.73
2018-08-23T15:39:16.247Z,49.81
2018-08-23T15:40:52.389Z,49.48
2018-08-23T15:42:29.032Z,50.78
2018-08-23T15:44:05.603Z,49.29
2018-08-23T15:45:40.948Z,49.43
2018-08-23T15:47:21.187Z,50.04
2018-08-23T15:49:01.258Z,50.24
2018-08-23T15:50:37.168Z,49.89
2018-08-23T15:52:13.358Z,49.93
2018-08-23T15:53:52.808Z,50.30
2018-08-23T15:55:30.307Z,50.24
2018-08-23T15:57:07.583Z,49.21
2018-08-23T15:58:44.294Z,49.50
2018-08-23T16:00:33.260Z,49.67
2018-08-23T16:02:10.345Z,51.02
2018-08-23T16:03:47.448Z,51.19
2018-08-23T16:05:23.667Z,52.82
2018-08-23T16:07:00.091Z,52.82
2018-08-23T16:08:42.921Z,52.20
2018-08-23T16:10:19.957Z,52.60
2018-08-23T16:11:57.765Z,52.45
2018-08-23T16:13:35.322Z,52.20
2018-08-23T16:15:19.379Z,52.96
2018-08-23T16:21:14.369Z,51.95
2018-08-23T16:22:53.306Z,52.13
2018-08-23T16:24:30.776Z,51.73
2018-08-23T16:26:06.408Z,51.95
2018-08-23T16:27:43.346Z,52.21
2018-08-23T16:29:20.004Z,52.04
2018-08-23T16:30:58.954Z,53.57
2018-08-23T16:32:35.629Z,53.36
2018-08-23T16:34:12.654Z,53.88
2018-08-23T16:35:51.316Z,54.08
2018-08-23T16:37:31.825Z,54.53
2018-08-23T16:39:10.608Z,53.56
2018-08-23T16:40:52.497Z,54.36
2018-08-23T16:42:33.985Z,54.29
2018-08-23T16:44:14.554Z,54.17
2018-08-23T16:45:52.535Z,54.27
2018-08-23T16:47:29.956Z,54.34
2018-08-23T16:49:08.998Z,54.36
2018-08-23T16:50:54.243Z,54.78
2018-08-23T16:52:30.341Z,55.23
2018-08-23T16:54:06.254Z,56.10
2018-08-23T16:55:45.231Z,56.10
2018-08-23T16:57:21.863Z,56.29
2018-08-23T16:59:00.321Z,56.83
2018-08-23T17:00:40.881Z,56.70
2018-08-23T17:02:18.113Z,56.56
2018-08-23T17:04:00.512Z,56.85
2018-08-23T17:05:44.707Z,56.45
2018-08-23T17:07:22.423Z,55.98
2018-08-23T17:09:06.620Z,57.03
2018-08-23T17:10:43.291Z,57.17
2018-08-23T17:12:21.426Z,56.99
2018-08-23T17:13:59.350Z,56.32
2018-08-23T17:15:41.578Z,56.79
2018-08-23T17:17:23.761Z,56.56
2018-08-23T17:19:00.832Z,56.88
2018-08-23T17:20:36.429Z,57.00
2018-08-23T17:22:16.039Z,58.05
2018-08-23T17:24:13.697Z,58.32
2018-08-23T17:25:59.572Z,58.05
2018-08-23T17:27:37.475Z,58.69
2018-08-23T17:29:17.253Z,57.96
2018-08-23T17:30:58.679Z,58.09
2018-08-23T17:32:37.803Z,58.03
2018-08-23T17:34:17.270Z,58.96
2018-08-23T17:35:55.548Z,58.46
2018-08-23T17:37:33.065Z,59.15
2018-08-23T17:39:12.342Z,58.62
2018-08-23T17:40:52.064Z,59.01
2018-08-23T17:42:37.780Z,59.13
2018-08-23T17:44:18.333Z,59.07
2018-08-23T17:45:59.567Z,59.20
2018-08-23T17:47:38.529Z,59.36
2018-08-23T17:49:18.354Z,59.39
2018-08-23T17:50:58.142Z,60.08
2018-08-23T17:52:35.508Z,59.81
2018-08-23T17:54:14.948Z,60.18
2018-08-23T17:56:01.593Z,59.73
2018-08-23T17:57:39.118Z,59.63
2018-08-23T17:59:20.224Z,59.29
2018-08-23T18:01:00.453Z,60.34
2018-08-23T18:02:40.237Z,60.15
2018-08-23T18:04:20.182Z,59.53
2018-08-23T18:06:05.340Z,60.06
2018-08-23T18:07:46.226Z,60.04
2018-08-23T18:09:27.496Z,60.69
2018-08-23T18:11:08.591Z,60.47
2018-08-23T18:12:55.522Z,61.05
2018-08-23T18:14:37.355Z,60.92
2018-08-23T18:16:21.654Z,61.58
2018-08-23T18:18:00.342Z,60.61
2018-08-23T18:19:43.471Z,61.21
2018-08-23T18:21:24.008Z,61.79
2018-08-23T18:23:05.160Z,61.88
2018-08-23T18:24:41.431Z,62.56
2018-08-23T18:26:26.719Z,62.71
2018-08-23T18:28:06.248Z,62.59
2018-08-23T18:29:44.323Z,63.13
2018-08-23T18:31:25.344Z,62.50
2018-08-23T18:33:03.667Z,63.43
2018-08-23T18:34:41.446Z,62.73
2018-08-23T18:36:21.142Z,64.17
2018-08-23T18:38:03.937Z,63.43
2018-08-23T18:39:43.345Z,63.75
2018-08-23T18:41:25.512Z,64.79
2018-08-23T18:43:04.816Z,64.86
2018-08-23T18:44:41.247Z,64.94
2018-08-23T18:46:19.471Z,65.38
2018-08-23T18:47:58.130Z,65.14
2018-08-23T18:49:36.310Z,65.76
2018-08-23T18:51:18.625Z,65.19
2018-08-23T18:52:56.152Z,66.15
2018-08-23T18:54:34.552Z,65.43
2018-08-23T18:56:17.458Z,66.33
2018-08-23T18:58:05.104Z,65.45
2018-08-23T18:59:45.757Z,65.88
2018-08-23T19:01:27.449Z,66.59
2018-08-23T19:03:06.650Z,66.84
2018-08-23T19:04:44.491Z,67.12
2018-08-23T19:06:22.161Z,66.74
2018-08-23T19:08:13.594Z,66.72
2018-08-23T19:09:50.450Z,66.71
2018-08-23T19:11:31.912Z,66.72
2018-08-23T19:13:11.460Z,67.37
2018-08-23T19:14:51.404Z,67.85
2018-08-23T19:16:32.602Z,68.26
2018-08-23T19:18:10.423Z,69.12
2018-08-23T19:19:59.549Z,68.94
2018-08-23T19:21:35.463Z,69.13
2018-08-23T19:23:13.266Z,69.02
2018-08-23T19:24:52.489Z,68.20
2018-08-23T19:26:35.870Z,68.69
2018-08-23T19:28:34.423Z,68.50
2018-08-23T19:30:15.144Z,68.36
2018-08-23T19:31:58.139Z,69.38
2018-08-23T19:33:33.216Z,69.29
2018-08-23T19:35:12.552Z,68.65
2018-08-23T19:36:48.855Z,69.36
2018-08-23T19:38:27.726Z,69.94
2018-08-23T19:41:50.527Z,69.86
2018-08-23T19:43:28.577Z,69.44
2018-08-23T19:45:16.455Z,69.66
2018-08-23T19:46:56.998Z,69.94
2018-08-23T19:48:41.512Z,69.40
2018-08-23T19:50:21.029Z,68.88
2018-08-23T19:51:56.602Z,69.54
2018-08-23T19:53:35.225Z,69.11
2018-08-23T19:55:15.247Z,69.81
2018-08-23T19:56:58.477Z,69.35
2018-08-23T19:58:37.684Z,69.42
2018-08-23T20:02:04.005Z,70.07
2018-08-23T20:03:42.848Z,70.47
2018-08-23T20:05:24.465Z,70.24
2018-08-23T20:07:09.102Z,70.50
2018-08-23T20:08:55.577Z,70.26
2018-08-23T20:10:38.754Z,70.50
2018-08-23T20:12:21.454Z,71.19
2018-08-23T20:14:02.643Z,71.27
2018-08-23T20:15:40.269Z,71.12
2018-08-23T20:17:23.111Z,71.78
2018-08-23T20:19:04.080Z,71.15
2018-08-23T20:20:44.466Z,72.21
2018-08-23T20:22:31.859Z,72.27
2018-08-23T20:24:13.248Z,72.54
2018-08-23T20:25:50.084Z,72.16
2018-08-23T20:27:29.564Z,72.55
2018-08-23T20:29:08.503Z,73.48
2018-08-23T20:31:11.258Z,72.81
2018-08-23T20:32:56.711Z,73.56
2018-08-23T20:34:49.990Z,73.74
2018-08-23T20:36:35.882Z,73.88
2018-08-23T20:41:49.858Z,73.56
2018-08-23T20:43:42.573Z,73.59
2018-08-23T20:45:19.373Z,74.37
2018-08-23T20:46:54.985Z,73.84
2018-08-23T20:48:31.830Z,74.22
2018-08-23T20:50:18.464Z,74.12
2018-08-23T20:52:02.665Z,74.82
2018-08-23T20:53:45.186Z,74.42
2018-08-23T20:55:23.321Z,75.51
2018-08-23T20:57:03.560Z,75.23
2018-08-23T20:58:40.245Z,74.85
2018-08-23T21:00:23.727Z,75.74
2018-08-23T21:02:06.672Z,75.47
2018-08-23T21:03:51.605Z,75.93
2018-08-23T21:05:33.750Z,76.26
2018-08-23T21:07:14.984Z,76.43
2018-08-23T21:08:55.801Z,76.87
2018-08-23T21:10:43.795Z,76.89
2018-08-23T21:12:29.928Z,77.25
2018-08-23T21:14:10.563Z,77.62
2018-08-23T21:15:52.731Z,77.30
2018-08-23T21:17:31.732Z,77.70
2018-08-23T21:21:06.562Z,78.20
2018-08-23T21:24:52.225Z,78.63
2018-08-23T21:26:31.960Z,79.21
2018-08-23T21:28:11.575Z,79.04
2018-08-23T21:29:47.918Z,79.01
2018-08-23T21:31:27.661Z,79.32
2018-08-23T21:33:07.437Z,79.66
2018-08-23T21:34:48.484Z,79.77
2018-08-23T21:36:29.091Z,79.44
2018-08-23T21:38:06.314Z,79.68
2018-08-23T21:39:43.612Z,80.04
2018-08-23T21:43:11.564Z,80.50
2018-08-23T21:44:49.503Z,80.27
2018-08-23T21:46:28.062Z,80.23
2018-08-23T21:48:09.579Z,80.76
2018-08-23T21:49:47.369Z,80.44
2018-08-23T21:51:28.850Z,80.48
2018-08-23T21:53:09.021Z,80.71
2018-08-23T21:54:45.894Z,81.00
2018-08-23T21:56:22.473Z,80.40
2018-08-23T21:58:00.227Z,81.06
2018-08-23T21:59:38.295Z,80.91
2018-08-23T22:01:19.075Z,80.69
2018-08-23T22:03:00.294Z,80.88
2018-08-23T22:04:41.321Z,81.25
2018-08-23T22:06:19.716Z,80.96
2018-08-23T22:07:58.548Z,80.48